METAR Data

Data at: 1051 UTC 21 Apr 2021

METAR for:CYCX (Gagetown (MIL), NB, CN)
Text:CYCX 211000Z 19004KT 15SM OVC080 05/M00 A2989 RMK AS8 DA-925FT SLP123
Temperature: 5.0°C ( 41°F)
Dewpoint: 0.0°C ( 32°F) [RH = 70%]
Pressure (altimeter):29.89 inches Hg (1012.3 mb) [Sea level pressure: 1012.3 mb]
Winds:from the S (190 degrees) at 5 MPH (4 knots; 2.1 m/s)
Visibility: 15 sm ( 24 km)
Ceiling:8000 feet AGL
Clouds: overcast cloud deck at 8000 feet AGL